Time;durP1;ratioP1;P1;durP2;ratioP2;P2;SDS_P1;SDS_P2;PMS_P1;PMS_P2;Temp;Humidity;BMP_temperature;BMP_pressure;BME280_temperature;BME280_humidity;BME280_pressure;Samples;Min_cycle;Max_cycle;Signal;HPM_P1;HPM_P2
2021/07/27 00:01:59;;;;;;;25.40;10.57;;;;;;;12.86;100.00;93817.00;5096010;28;20213;-77
2021/07/27 00:04:25;;;;;;;19.27;9.53;;;;;;;12.85;100.00;93820.63;5095589;28;20230;-77
2021/07/27 00:06:52;;;;;;;22.87;8.80;;;;;;;12.71;100.00;93808.66;5090616;28;20648;-77
2021/07/27 00:09:18;;;;;;;23.73;8.10;;;;;;;12.64;100.00;93810.50;5095629;28;20572;-76
2021/07/27 00:11:45;;;;;;;27.50;8.93;;;;;;;12.57;100.00;93800.91;5095752;28;20683;-76
2021/07/27 00:14:12;;;;;;;29.10;9.27;;;;;;;12.52;100.00;93810.38;5095377;28;20198;-77
2021/07/27 00:16:39;;;;;;;15.23;8.23;;;;;;;12.45;100.00;93810.44;5094435;28;20198;-77
2021/07/27 00:19:06;;;;;;;19.50;8.90;;;;;;;12.36;100.00;93809.88;5095424;28;20198;-77
2021/07/27 00:21:32;;;;;;;17.80;9.00;;;;;;;12.39;100.00;93813.91;5095053;28;20226;-76
2021/07/27 00:23:58;;;;;;;23.60;10.83;;;;;;;12.54;100.00;93813.59;5095587;28;20206;-78
2021/07/27 00:26:25;;;;;;;22.25;9.93;;;;;;;12.53;100.00;93807.56;5095393;28;20226;-77
2021/07/27 00:28:51;;;;;;;25.83;10.87;;;;;;;12.53;100.00;93807.56;5095360;28;20205;-77
2021/07/27 00:31:20;;;;;;;21.17;10.97;;;;;;;12.59;100.00;93803.31;5095110;28;20281;-77
2021/07/27 00:33:47;;;;;;;26.50;11.67;;;;;;;12.63;100.00;93801.88;5095457;28;20209;-77
2021/07/27 00:36:14;;;;;;;26.33;11.47;;;;;;;12.68;100.00;93796.78;5095086;28;20704;-77
2021/07/27 00:38:41;;;;;;;24.33;10.97;;;;;;;12.61;100.00;93798.66;5095236;28;20205;-77
2021/07/27 00:41:07;;;;;;;20.27;8.73;;;;;;;12.39;100.00;93790.34;5095163;28;20538;-76
2021/07/27 00:43:34;;;;;;;16.10;8.03;;;;;;;12.20;100.00;93792.84;5095063;28;20546;-77
2021/07/27 00:46:01;;;;;;;27.43;9.53;;;;;;;12.08;100.00;93799.75;5094977;28;20619;-78
2021/07/27 00:48:29;;;;;;;28.67;11.03;;;;;;;12.29;100.00;93784.75;5095067;28;20198;-77
2021/07/27 00:50:55;;;;;;;26.00;10.73;;;;;;;12.34;100.00;93784.91;5095112;28;20293;-77
2021/07/27 00:53:22;;;;;;;22.57;9.73;;;;;;;12.20;100.00;93781.59;5094876;28;20656;-77
2021/07/27 00:55:51;;;;;;;27.33;10.27;;;;;;;12.23;100.00;93783.00;5094856;28;20250;-78
2021/07/27 00:58:17;;;;;;;28.70;10.37;;;;;;;12.14;100.00;93782.41;5095342;28;20210;-78
2021/07/27 01:00:44;;;;;;;24.60;11.60;;;;;;;12.16;100.00;93778.59;5094656;28;20198;-79
2021/07/27 01:03:10;;;;;;;26.60;11.13;;;;;;;12.19;100.00;93778.16;5094842;28;20628;-78
2021/07/27 01:05:38;;;;;;;26.27;11.90;;;;;;;12.26;100.00;93785.16;5094693;28;20241;-76
2021/07/27 01:08:05;;;;;;;23.30;10.97;;;;;;;12.15;100.00;93790.06;5094498;28;20202;-77
2021/07/27 01:10:32;;;;;;;21.30;10.03;;;;;;;12.02;100.00;93790.94;5094526;28;20198;-79
2021/07/27 01:12:58;;;;;;;33.23;11.47;;;;;;;12.09;100.00;93788.31;5094357;28;20194;-78
2021/07/27 01:15:25;;;;;;;28.90;11.07;;;;;;;12.05;100.00;93794.16;5094543;28;20198;-79
2021/07/27 01:18:01;;;;;;;33.63;14.05;;;;;;;11.97;100.00;93797.78;5093735;28;20492;-78
2021/07/27 01:20:33;;;;;;;21.33;9.57;;;;;;;11.78;100.00;93800.25;5094399;28;20201;-78
2021/07/27 01:39:29;;;;;;;31.20;12.27;;;;;;;11.94;100.00;93806.06;5094096;28;20694;-76
2021/07/27 01:42:05;;;;;;;30.60;12.50;;;;;;;11.96;100.00;93790.97;5093164;28;20225;-77
2021/07/27 01:44:32;;;;;;;38.57;13.13;;;;;;;12.12;100.00;93795.72;5094005;28;20269;-78
2021/07/27 01:46:59;;;;;;;43.63;14.27;;;;;;;12.20;100.00;93798.09;5094124;28;20236;-78
2021/07/27 01:49:25;;;;;;;29.70;13.70;;;;;;;12.18;100.00;93792.25;5093952;28;20202;-77
2021/07/27 01:51:53;;;;;;;33.77;14.40;;;;;;;12.11;100.00;93795.94;5093858;28;20209;-80
2021/07/27 01:54:28;;;;;;;31.20;12.70;;;;;;;12.04;100.00;93798.59;5094110;28;20209;-81
2021/07/27 01:56:56;;;;;;;30.83;13.07;;;;;;;11.98;100.00;93802.03;5093634;28;20205;-76
2021/07/27 01:59:23;;;;;;;25.93;11.17;;;;;;;11.81;100.00;93793.81;5093889;28;20198;-78
2021/07/27 02:01:49;;;;;;;33.43;12.13;;;;;;;11.68;100.00;93794.66;5093309;28;20490;-79
2021/07/27 02:04:16;;;;;;;28.37;10.00;;;;;;;11.55;100.00;93792.88;5093414;28;20251;-78
2021/07/27 02:06:42;;;;;;;26.67;10.30;;;;;;;11.50;100.00;93784.06;5093590;28;20274;-78
2021/07/27 02:09:09;;;;;;;32.23;10.70;;;;;;;11.58;100.00;93792.47;5094133;28;20206;-77
2021/07/27 02:11:41;;;;;;;29.97;12.27;;;;;;;11.72;100.00;93798.47;5094031;28;20285;-77
2021/07/27 02:14:11;;;;;;;26.17;11.50;;;;;;;11.70;100.00;93797.09;5093692;28;20199;-78
2021/07/27 02:16:38;;;;;;;33.30;13.50;;;;;;;11.86;100.00;93788.78;5093514;28;20256;-78
2021/07/27 02:19:07;;;;;;;33.83;14.10;;;;;;;12.03;100.00;93787.31;5093262;28;20786;-78
2021/07/27 02:21:34;;;;;;;39.03;15.43;;;;;;;12.13;100.00;93784.25;5092474;28;20556;-78
2021/07/27 02:24:03;;;;;;;35.03;14.27;;;;;;;12.11;100.00;93786.28;5093088;28;20251;-77
2021/07/27 02:26:30;;;;;;;33.80;13.00;;;;;;;11.95;100.00;93786.75;5093158;28;20230;-77
2021/07/27 02:28:59;;;;;;;32.87;12.53;;;;;;;11.91;100.00;93796.00;5093302;28;20206;-78
2021/07/27 02:31:35;;;;;;;30.53;11.80;;;;;;;11.85;100.00;93805.47;5093109;28;20205;-77
2021/07/27 02:34:01;;;;;;;25.83;10.63;;;;;;;11.58;100.00;93789.88;5093057;28;20197;-77
2021/07/27 02:36:28;;;;;;;29.27;11.30;;;;;;;11.55;100.00;93799.94;5092787;28;20574;-77
2021/07/27 02:38:54;;;;;;;22.00;10.00;;;;;;;11.55;100.00;93790.28;5092757;28;20198;-77
2021/07/27 02:41:41;;;;;;;47.00;13.03;;;;;;;11.67;100.00;93795.66;5093210;28;20202;-77
2021/07/27 02:44:08;;;;;;;27.93;11.70;;;;;;;11.57;100.00;93793.47;5086252;28;20587;-77
2021/07/27 02:46:36;;;;;;;38.27;13.67;;;;;;;11.74;100.00;93791.25;5093109;28;20272;-77
2021/07/27 02:49:06;;;;;;;32.70;14.33;;;;;;;11.85;100.00;93790.56;5093365;28;20567;-78
2021/07/27 02:51:36;;;;;;;34.93;14.43;;;;;;;11.79;100.00;93788.81;5093442;28;20206;-77
2021/07/27 02:54:02;;;;;;;36.93;14.73;;;;;;;11.89;100.00;93792.78;5093098;28;20202;-77
2021/07/27 02:56:28;;;;;;;39.50;14.13;;;;;;;11.88;100.00;93796.41;5092886;28;20661;-77
2021/07/27 02:58:55;;;;;;;31.57;12.77;;;;;;;11.76;100.00;93797.06;5092897;28;20546;-77
2021/07/27 03:01:21;;;;;;;30.63;12.53;;;;;;;11.66;100.00;93797.50;5092712;28;20557;-78
2021/07/27 03:03:50;;;;;;;30.70;13.03;;;;;;;11.67;100.00;93793.06;5093068;28;20202;-77
2021/07/27 03:06:20;;;;;;;32.20;12.87;;;;;;;11.68;100.00;93794.66;5092854;28;20316;-79
2021/07/27 03:08:50;;;;;;;35.53;14.10;;;;;;;11.76;100.00;93791.81;5092729;28;20656;-78
2021/07/27 03:11:17;;;;;;;31.33;12.63;;;;;;;11.73;100.00;93802.69;5093077;28;20206;-78
2021/07/27 03:13:44;;;;;;;32.90;13.77;;;;;;;11.76;100.00;93802.28;5092435;28;20209;-79
2021/07/27 03:16:15;;;;;;;34.47;13.67;;;;;;;11.94;100.00;93799.03;5092808;28;20251;-78
2021/07/27 03:18:42;;;;;;;35.47;14.13;;;;;;;11.86;100.00;93807.09;5092861;28;20195;-78
2021/07/27 03:21:12;;;;;;;31.83;12.57;;;;;;;11.85;100.00;93803.66;5093286;28;20255;-77
2021/07/27 03:23:39;;;;;;;30.40;13.30;;;;;;;11.74;100.00;93798.25;5092602;28;20209;-77
2021/07/27 03:26:05;;;;;;;29.40;12.40;;;;;;;11.68;100.00;93802.50;5092603;28;20684;-77
2021/07/27 03:28:31;;;;;;;29.37;13.40;;;;;;;11.69;100.00;93805.94;5092523;28;20198;-75
2021/07/27 03:30:59;;;;;;;29.88;14.05;;;;;;;11.63;100.00;93807.56;5092065;28;20842;-79
2021/07/27 03:33:25;;;;;;;29.63;12.07;;;;;;;11.60;100.00;93800.13;5092471;28;20252;-77
2021/07/27 03:35:52;;;;;;;28.23;12.63;;;;;;;11.61;100.00;93807.75;5092276;28;20226;-78
2021/07/27 03:38:20;;;;;;;29.87;12.60;;;;;;;11.73;100.00;93807.13;5092436;28;20588;-77
2021/07/27 03:40:46;;;;;;;28.03;12.43;;;;;;;11.66;100.00;93807.16;5092529;28;20233;-77
2021/07/27 03:43:13;;;;;;;24.13;12.00;;;;;;;11.58;100.00;93808.16;5092660;28;20255;-77
2021/07/27 03:45:39;;;;;;;25.03;12.00;;;;;;;11.56;100.00;93812.03;5092641;28;20601;-77
2021/07/27 03:48:06;;;;;;;26.63;11.40;;;;;;;11.54;100.00;93816.63;5092624;28;20293;-77
2021/07/27 03:50:33;;;;;;;29.30;12.70;;;;;;;11.59;100.00;93819.44;5093790;28;20656;-77
2021/07/27 03:52:59;;;;;;;31.93;12.80;;;;;;;11.60;100.00;93816.59;5096067;28;20649;-78
2021/07/27 03:55:30;;;;;;;28.33;12.83;;;;;;;11.62;100.00;93803.34;5095951;28;20204;-76
2021/07/27 03:57:56;;;;;;;29.27;13.83;;;;;;;11.68;100.00;93812.97;5096246;28;20255;-77
2021/07/27 04:00:26;;;;;;;33.97;13.90;;;;;;;11.74;100.00;93803.50;5095863;28;20665;-77
2021/07/27 04:02:52;;;;;;;33.37;14.07;;;;;;;11.84;100.00;93799.44;5096076;28;20281;-77
2021/07/27 04:05:19;;;;;;;30.40;12.50;;;;;;;11.76;100.00;93804.13;5095875;28;20206;-78
2021/07/27 04:07:45;;;;;;;27.33;12.63;;;;;;;11.77;100.00;93798.66;5095755;28;20617;-77
2021/07/27 04:10:13;;;;;;;31.90;11.90;;;;;;;11.72;100.00;93803.69;5095524;28;20194;-77
2021/07/27 04:12:41;;;;;;;29.80;12.37;;;;;;;11.69;100.00;93806.75;5095654;28;20729;-76
2021/07/27 04:15:09;;;;;;;28.67;11.87;;;;;;;11.61;100.00;93804.34;5095713;28;20289;-76
2021/07/27 04:17:35;;;;;;;24.90;10.97;;;;;;;11.58;100.00;93797.72;5095080;28;20205;-76
2021/07/27 04:20:02;;;;;;;27.80;11.30;;;;;;;11.63;100.00;93803.13;5095412;28;20205;-77
2021/07/27 04:22:28;;;;;;;25.00;11.47;;;;;;;11.65;100.00;93797.69;5095386;28;20197;-77
2021/07/27 04:24:57;;;;;;;30.23;11.87;;;;;;;11.63;100.00;93791.88;5095463;28;20671;-78
2021/07/27 04:27:24;;;;;;;26.13;11.77;;;;;;;11.62;100.00;93785.03;5095637;28;20316;-79
2021/07/27 04:29:53;;;;;;;24.13;11.80;;;;;;;11.63;100.00;93791.88;5095200;28;20288;-77
2021/07/27 04:32:22;;;;;;;30.60;12.43;;;;;;;11.61;100.00;93786.84;5095522;28;20198;-78
2021/07/27 04:34:50;;;;;;;24.30;11.30;;;;;;;11.60;100.00;93787.84;5095292;28;20268;-77
2021/07/27 04:37:19;;;;;;;26.37;10.57;;;;;;;11.59;100.00;93790.66;5095059;28;20293;-78
2021/07/27 04:39:46;;;;;;;24.17;11.77;;;;;;;11.58;100.00;93786.47;5095324;28;20198;-78
2021/07/27 04:42:13;;;;;;;26.33;10.77;;;;;;;11.59;100.00;93791.50;5095065;28;20202;-78
2021/07/27 04:44:39;;;;;;;23.70;10.13;;;;;;;11.61;100.00;93793.91;5095212;28;20194;-76
2021/07/27 04:47:07;;;;;;;28.63;11.63;;;;;;;11.59;100.00;93790.66;5095147;28;20275;-77
2021/07/27 04:49:35;;;;;;;29.67;12.03;;;;;;;11.64;100.00;93789.06;5094948;28;20201;-77
2021/07/27 04:52:04;;;;;;;29.40;11.33;;;;;;;11.65;100.00;93789.84;5095188;28;20234;-76
2021/07/27 04:54:41;;;;;;;26.20;11.20;;;;;;;11.71;100.00;93790.81;5095034;28;20202;-77
2021/07/27 04:57:10;;;;;;;28.27;12.25;;;;;;;11.74;100.00;93796.47;5094900;28;20482;-78
2021/07/27 04:59:37;;;;;;;32.07;12.40;;;;;;;11.80;100.00;93792.22;5094760;28;20198;-78
2021/07/27 05:02:03;;;;;;;27.97;11.27;;;;;;;11.84;100.00;93786.38;5094619;28;20199;-77
2021/07/27 05:04:35;;;;;;;29.37;12.00;;;;;;;11.91;100.00;93782.94;5094661;28;20198;-76
2021/07/27 05:07:03;;;;;;;29.70;12.00;;;;;;;11.94;100.00;93782.50;5094832;28;20233;-77
2021/07/27 05:09:30;;;;;;;31.37;12.90;;;;;;;11.98;100.00;93783.72;5094686;28;20205;-76
2021/07/27 05:11:57;;;;;;;28.60;11.50;;;;;;;12.06;100.00;93780.84;5094829;28;20198;-77
2021/07/27 05:14:24;;;;;;;26.70;11.87;;;;;;;12.13;100.00;93775.59;5094481;28;20202;-77
2021/07/27 05:16:50;;;;;;;25.40;11.67;;;;;;;12.16;100.00;93775.97;5094248;28;20198;-77
2021/07/27 05:19:24;;;;;;;34.63;12.93;;;;;;;12.25;100.00;93773.91;5094721;28;20542;-78
2021/07/27 05:21:54;;;;;;;32.00;13.00;;;;;;;12.33;100.00;93771.03;5093607;28;20284;-77
2021/07/27 05:24:22;;;;;;;30.37;12.73;;;;;;;12.47;100.00;93771.75;5094236;28;20672;-77
2021/07/27 05:26:50;;;;;;;29.17;13.00;;;;;;;12.61;100.00;93769.03;5094288;28;20324;-78
2021/07/27 05:29:18;;;;;;;25.67;12.23;;;;;;;12.65;100.00;93770.22;5094145;28;20198;-78
2021/07/27 05:31:47;;;;;;;27.25;11.93;;;;;;;12.72;100.00;93768.34;5094397;28;20298;-77
2021/07/27 05:34:13;;;;;;;25.50;12.15;;;;;;;12.80;100.00;93765.47;5094048;28;20202;-78
2021/07/27 05:36:40;;;;;;;28.10;12.43;;;;;;;12.96;100.00;93769.38;5094193;28;20205;-77
2021/07/27 05:39:07;;;;;;;28.17;12.17;;;;;;;13.17;100.00;93762.13;5094004;28;20281;-78
2021/07/27 05:41:34;;;;;;;25.98;11.77;;;;;;;13.56;100.00;93758.31;5094136;28;20202;-77
2021/07/27 05:44:00;;;;;;;25.10;10.43;;;;;;;13.78;100.00;93755.25;5093879;28;20205;-78
2021/07/27 05:46:29;;;;;;;19.10;9.73;;;;;;;14.84;100.00;93747.72;5093922;28;20615;-76
2021/07/27 05:48:56;;;;;;;11.32;7.03;;;;;;;15.68;100.00;93747.41;5094108;28;20213;-77
2021/07/27 05:51:25;;;;;;;11.18;6.20;;;;;;;16.43;100.00;93736.97;5093912;28;20238;-78
2021/07/27 05:53:54;;;;;;;9.52;4.90;;;;;;;17.50;100.00;93734.38;5095318;28;20267;-78
2021/07/27 05:56:23;;;;;;;9.45;4.72;;;;;;;18.98;100.00;93737.00;5094807;28;20715;-76
2021/07/27 05:58:52;;;;;;;6.88;4.32;;;;;;;20.19;100.00;93739.78;5094122;28;20204;-79
2021/07/27 06:01:18;;;;;;;7.13;3.50;;;;;;;20.38;100.00;93739.28;5093667;28;20675;-77
2021/07/27 06:03:45;;;;;;;4.55;2.80;;;;;;;20.13;100.00;93740.81;5093763;28;20198;-77
2021/07/27 06:06:13;;;;;;;5.75;3.28;;;;;;;20.72;100.00;93747.59;5093520;28;20225;-77
2021/07/27 06:08:39;;;;;;;5.05;3.42;;;;;;;21.06;100.00;93747.84;5093408;28;20562;-78
2021/07/27 06:11:07;;;;;;;7.03;3.75;;;;;;;21.26;100.00;93747.03;5093361;28;20722;-78
2021/07/27 06:13:35;;;;;;;7.88;3.75;;;;;;;20.77;100.00;93744.94;5092958;28;20288;-79
2021/07/27 06:16:03;;;;;;;7.10;3.75;;;;;;;20.70;100.00;93742.56;5093517;28;20198;-79
2021/07/27 06:18:30;;;;;;;6.63;3.60;;;;;;;20.67;100.00;93745.75;5092907;28;20244;-77
2021/07/27 06:20:56;;;;;;;5.20;3.13;;;;;;;20.46;100.00;93749.38;5093193;28;20267;-79
2021/07/27 06:23:23;;;;;;;6.57;3.47;;;;;;;19.84;100.00;93743.91;5093079;28;20197;-79
2021/07/27 06:25:49;;;;;;;6.55;3.20;;;;;;;19.42;100.00;93748.16;5093510;28;20206;-79
2021/07/27 06:28:15;;;;;;;7.27;3.70;;;;;;;19.29;100.00;93743.31;5091799;28;20513;-79
2021/07/27 06:30:43;;;;;;;4.53;3.38;;;;;;;18.92;100.00;93749.41;5093266;28;20202;-79
2021/07/27 06:33:10;;;;;;;5.60;3.38;;;;;;;18.40;100.00;93745.50;5093159;28;20210;-78
2021/07/27 06:35:36;;;;;;;5.47;3.47;;;;;;;17.42;100.00;93755.94;5093113;28;20234;-78
2021/07/27 06:38:05;;;;;;;7.85;3.80;;;;;;;17.70;100.00;93750.50;5092931;28;20205;-80
2021/07/27 06:40:32;;;;;;;5.50;3.60;;;;;;;18.11;100.00;93748.34;5093182;28;20209;-78
2021/07/27 06:43:00;;;;;;;6.75;3.80;;;;;;;18.25;100.00;93758.53;5093112;28;20197;-79
2021/07/27 06:45:26;;;;;;;7.72;3.40;;;;;;;18.46;100.00;93760.34;5093260;28;20197;-77
2021/07/27 06:47:54;;;;;;;4.47;3.20;;;;;;;18.56;100.00;93764.94;5092856;28;20229;-79
2021/07/27 06:50:26;;;;;;;5.70;3.70;;;;;;;18.75;100.00;93764.56;5093078;28;20201;-78
2021/07/27 06:52:53;;;;;;;4.10;2.97;;;;;;;19.19;100.00;93770.50;5092951;28;20277;-78
2021/07/27 06:55:22;;;;;;;6.03;3.15;;;;;;;19.62;100.00;93775.00;5093027;28;20553;-78
2021/07/27 06:57:49;;;;;;;4.47;2.90;;;;;;;19.91;100.00;93781.56;5093014;28;20243;-77
2021/07/27 07:00:16;;;;;;;4.72;3.08;;;;;;;20.10;100.00;93773.97;5092488;28;20202;-78
2021/07/27 07:02:43;;;;;;;4.65;3.30;;;;;;;20.11;100.00;93772.09;5092925;28;20213;-78
2021/07/27 07:05:11;;;;;;;4.65;3.03;;;;;;;20.26;100.00;93766.84;5092649;28;20194;-77
2021/07/27 07:07:39;;;;;;;4.22;3.00;;;;;;;20.30;100.00;93769.75;5092931;28;20226;-79
2021/07/27 07:10:06;;;;;;;3.53;2.80;;;;;;;20.17;100.00;93778.19;5092984;28;20194;-79
2021/07/27 07:12:33;;;;;;;4.55;2.80;;;;;;;20.23;100.00;93790.44;5092159;28;20916;-81
2021/07/27 07:14:59;;;;;;;5.40;2.85;;;;;;;20.14;100.00;93784.84;5092722;28;20247;-80
2021/07/27 07:17:26;;;;;;;7.35;3.05;;;;;;;20.27;100.00;93787.00;5092736;28;20193;-80
2021/07/27 07:19:53;;;;;;;6.82;2.85;;;;;;;20.17;100.00;93788.81;5092615;28;20209;-80
2021/07/27 07:22:21;;;;;;;6.45;3.30;;;;;;;20.24;100.00;93790.16;5092626;28;20202;-81
2021/07/27 07:24:51;;;;;;;5.75;3.22;;;;;;;20.41;100.00;93784.66;5093032;28;20203;-80
2021/07/27 07:27:19;;;;;;;6.53;3.22;;;;;;;20.73;100.00;93786.31;5096589;28;20221;-80
2021/07/27 07:29:45;;;;;;;4.80;2.47;;;;;;;20.68;91.06;93779.19;5096525;28;20202;-81
2021/07/27 07:32:11;;;;;;;5.53;2.55;;;;;;;20.73;90.46;93781.03;5096389;28;20663;-80
2021/07/27 07:34:38;;;;;;;3.22;2.40;;;;;;;20.99;86.79;93773.88;5096426;28;20283;-81
2021/07/27 07:37:06;;;;;;;5.82;2.60;;;;;;;21.20;87.04;93779.19;5096387;28;20210;-81
2021/07/27 07:39:36;;;;;;;4.47;2.80;;;;;;;21.14;82.71;93788.22;5096677;28;20201;-81
2021/07/27 07:42:04;;;;;;;4.05;2.67;;;;;;;21.49;86.70;93791.97;5096350;28;20256;-81
2021/07/27 07:44:31;;;;;;;3.72;2.40;;;;;;;21.77;85.85;93793.22;5096222;28;20255;-82
2021/07/27 07:46:58;;;;;;;4.72;2.70;;;;;;;21.76;85.53;93792.41;5096099;28;20751;-83
2021/07/27 07:49:24;;;;;;;5.45;2.50;;;;;;;21.80;85.87;93788.16;5096489;28;20280;-83
2021/07/27 07:51:51;;;;;;;6.25;3.17;;;;;;;21.86;85.07;93785.50;5096102;28;20687;-83
2021/07/27 07:54:18;;;;;;;4.00;2.63;;;;;;;22.00;85.34;93775.88;5096542;28;20316;-83
2021/07/27 07:56:47;;;;;;;3.45;2.65;;;;;;;21.94;90.08;93780.41;5096304;28;20318;-82
2021/07/27 07:59:14;;;;;;;3.80;2.50;;;;;;;21.86;85.28;93780.19;5096608;28;20206;-85
2021/07/27 08:01:44;;;;;;;4.25;2.83;;;;;;;21.98;77.17;93781.47;5097833;28;20194;-84
2021/07/27 08:04:11;;;;;;;6.13;2.78;;;;;;;22.15;82.18;93772.38;5096732;28;20209;-83
2021/07/27 08:06:37;;;;;;;8.50;3.00;;;;;;;22.35;78.92;93777.63;5097587;28;20653;-87
2021/07/27 08:09:04;;;;;;;4.15;2.83;;;;;;;22.35;76.63;93782.16;5097569;28;20206;-86
2021/07/27 08:11:30;;;;;;;5.00;2.65;;;;;;;22.03;76.40;93779.84;5099486;28;20599;-87
2021/07/27 08:13:58;;;;;;;4.50;2.80;;;;;;;21.65;79.00;93780.25;5097145;28;20194;-87
2021/07/27 08:16:25;;;;;;;3.95;2.85;;;;;;;21.35;81.54;93776.53;5098335;28;20198;-86
2021/07/27 08:18:52;;;;;;;5.90;3.10;;;;;;;21.79;83.49;93780.47;5079524;28;20400;-86
2021/07/27 08:21:22;;;;;;;4.22;2.47;;;;;;;21.86;87.02;93774.84;5096218;28;20603;-88
2021/07/27 08:23:49;;;;;;;5.60;2.83;;;;;;;21.65;78.52;93780.25;5097889;28;20232;-84
2021/07/27 08:26:15;;;;;;;4.53;3.03;;;;;;;21.75;95.50;93772.25;5097409;28;20232;-86
2021/07/27 08:28:42;;;;;;;4.30;2.92;;;;;;;22.29;78.26;93776.03;5097074;28;20570;-84
2021/07/27 08:31:10;;;;;;;4.88;2.95;;;;;;;22.58;74.13;93785.22;5097350;28;20656;-85
2021/07/27 08:33:37;;;;;;;5.15;2.92;;;;;;;22.66;75.91;93776.66;5097713;28;20202;-87
2021/07/27 08:36:04;;;;;;;5.43;3.15;;;;;;;21.94;75.64;93776.97;5095900;28;20574;-86
2021/07/27 08:38:30;;;;;;;3.72;2.72;;;;;;;21.52;78.43;93786.09;5096913;28;20255;-86
2021/07/27 08:40:58;;;;;;;5.80;3.30;;;;;;;21.66;77.31;93791.66;5096089;28;20194;-83
2021/07/27 08:43:25;;;;;;;7.93;3.05;;;;;;;22.50;75.16;93786.59;5096038;28;20255;-84
2021/07/27 08:45:52;;;;;;;8.52;3.22;;;;;;;22.90;73.46;93792.75;5095280;28;20198;-81
2021/07/27 08:48:20;;;;;;;6.07;2.90;;;;;;;;;;5095209;28;20283;-79
2021/07/27 08:50:47;;;;;;;4.05;2.85;;;;;;;22.65;75.37;93785.69;5089196;28;20202;-81
2021/07/27 08:53:13;;;;;;;4.53;3.13;;;;;;;22.63;77.31;93775.34;5094752;28;20260;-81
2021/07/27 08:55:40;;;;;;;5.35;2.97;;;;;;;22.77;77.18;93777.38;5095454;28;20251;-82
2021/07/27 08:58:06;;;;;;;4.00;2.92;;;;;;;22.76;78.02;93781.91;5094825;28;20224;-80
2021/07/27 09:00:34;;;;;;;5.93;2.97;;;;;;;22.77;81.06;93778.19;5094842;28;20209;-79
2021/07/27 09:03:11;;;;;;;6.32;2.83;;;;;;;22.95;80.33;93767.91;5094812;28;20293;-80
2021/07/27 09:05:39;;;;;;;5.47;3.22;;;;;;;23.17;79.94;93771.00;5095106;28;20198;-82
2021/07/27 09:08:08;;;;;;;5.28;3.13;;;;;;;22.85;84.50;93766.16;5095183;28;20226;-81
2021/07/27 09:10:35;;;;;;;6.22;3.58;;;;;;;22.95;80.74;93765.25;5094951;28;20198;-81
2021/07/27 09:13:04;;;;;;;8.07;3.35;;;;;;;22.80;75.12;93776.81;5094838;28;20202;-81
2021/07/27 09:15:32;;;;;;;7.38;3.10;;;;;;;;;;5095212;28;20259;-82
2021/07/27 09:18:00;;;;;;;5.68;3.30;;;;;;;22.62;78.55;93770.28;5095214;28;20234;-81
2021/07/27 09:20:29;;;;;;;7.18;3.78;;;;;;;22.16;75.28;93763.31;5094965;28;20203;-81
2021/07/27 09:22:57;;;;;;;5.88;3.30;;;;;;;21.42;80.94;93768.28;5095222;28;20198;-81
2021/07/27 09:25:26;;;;;;;5.47;3.35;;;;;;;21.12;83.57;93772.56;5094947;28;20486;-81
2021/07/27 09:28:07;;;;;;;5.07;3.30;;;;;;;21.10;82.87;93780.00;5094559;28;20247;-82
2021/07/27 09:30:34;;;;;;;5.60;3.10;;;;;;;21.77;89.95;93769.31;5095973;28;20208;-83
2021/07/27 09:33:02;;;;;;;5.80;3.45;;;;;;;22.11;83.90;93774.75;5094834;28;20273;-83
2021/07/27 09:35:28;;;;;;;5.32;3.20;;;;;;;22.08;77.21;93770.00;5094584;28;20232;-81
2021/07/27 09:38:09;;;;;;;5.68;3.00;;;;;;;22.16;78.84;93758.78;5095558;28;20204;-82
2021/07/27 09:40:37;;;;;;;5.75;3.17;;;;;;;22.11;82.33;93764.13;5094554;28;20198;-82
2021/07/27 09:43:04;;;;;;;5.00;3.25;;;;;;;22.40;85.10;93763.50;5095208;28;20213;-84
2021/07/27 09:45:32;;;;;;;6.28;3.28;;;;;;;22.35;79.37;93766.97;5095245;28;20194;-85
2021/07/27 09:47:59;;;;;;;5.75;3.60;;;;;;;22.31;81.30;93759.81;5095300;28;20680;-85
2021/07/27 09:50:26;;;;;;;8.02;3.42;;;;;;;22.01;91.07;93756.19;5095049;28;20206;-85
2021/07/27 09:52:53;;;;;;;5.88;3.30;;;;;;;22.44;87.64;93763.75;5095206;28;20202;-85
2021/07/27 09:55:23;;;;;;;5.55;3.40;;;;;;;22.73;76.03;93771.78;5095093;28;20204;-83
2021/07/27 09:57:50;;;;;;;5.78;3.15;;;;;;;22.95;80.67;93762.59;5094771;28;20194;-85
2021/07/27 10:00:25;;;;;;;5.30;3.50;;;;;;;23.38;77.76;93770.78;5095425;28;20194;-83
2021/07/27 10:02:52;;;;;;;5.90;3.15;;;;;;;23.56;75.68;93775.41;5094908;28;20786;-84
2021/07/27 10:05:25;;;;;;;6.22;3.50;;;;;;;23.97;74.33;93768.91;5093439;28;20467;-84
2021/07/27 10:07:56;;;;;;;7.13;3.70;;;;;;;24.09;66.98;93771.16;5094234;28;20769;-84
2021/07/27 10:10:38;;;;;;;10.40;4.10;;;;;;;24.15;75.17;93762.03;5094181;28;20589;-85
2021/07/27 10:13:09;;;;;;;6.18;3.60;;;;;;;24.81;70.78;93767.59;5094225;28;20190;-84
2021/07/27 10:15:42;;;;;;;7.75;3.83;;;;;;;24.60;78.36;93762.53;5094606;28;20258;-84
2021/07/27 10:18:10;;;;;;;8.13;4.13;;;;;;;24.20;68.53;93773.44;5094455;28;20202;-83
2021/07/27 10:20:37;;;;;;;7.15;3.92;;;;;;;24.60;71.54;93761.72;5093805;28;20198;-84
2021/07/27 10:23:20;;;;;;;6.93;4.10;;;;;;;24.59;71.11;93760.16;5093418;28;20202;-84
2021/07/27 10:25:56;;;;;;;7.32;4.35;;;;;;;24.59;70.06;93760.94;5094041;28;20194;-84
2021/07/27 10:28:24;;;;;;;10.13;4.80;;;;;;;23.86;69.18;93760.22;5093676;28;20232;-84
2021/07/27 10:31:02;;;;;;;7.03;4.90;;;;;;;23.91;70.27;93762.81;5093682;28;20233;-84
2021/07/27 10:33:28;;;;;;;7.68;4.15;;;;;;;24.13;68.56;93764.16;5093393;28;20201;-85
2021/07/27 10:35:55;;;;;;;4.95;3.50;;;;;;;23.90;69.68;93763.91;5093249;28;20237;-84
2021/07/27 10:38:22;;;;;;;5.43;3.20;;;;;;;23.69;68.24;93762.53;5093377;28;20212;-83
2021/07/27 10:40:50;;;;;;;4.57;3.22;;;;;;;23.51;68.80;93764.81;5093451;28;20661;-84
2021/07/27 10:43:25;;;;;;;5.40;3.35;;;;;;;23.54;67.68;93769.59;5093383;28;20202;-84
2021/07/27 10:45:59;;;;;;;6.80;3.60;;;;;;;23.40;69.32;93758.00;5093533;28;20197;-84
2021/07/27 10:48:33;;;;;;;5.93;3.63;;;;;;;22.80;71.60;93760.84;5093285;28;20498;-84
2021/07/27 10:51:01;;;;;;;5.50;3.10;;;;;;;22.86;72.39;93762.41;5093933;28;20205;-84
2021/07/27 10:53:31;;;;;;;6.03;3.13;;;;;;;23.26;70.79;93764.00;5093886;28;20202;-82
2021/07/27 10:56:02;;;;;;;5.13;3.22;;;;;;;23.75;71.69;93764.06;5093867;28;20205;-84
2021/07/27 10:58:30;;;;;;;5.85;3.50;;;;;;;23.97;70.30;93767.03;5094200;28;20225;-83
2021/07/27 11:01:07;;;;;;;6.25;3.50;;;;;;;24.20;64.37;93770.75;5097144;28;20682;-84
2021/07/27 11:03:33;;;;;;;6.35;3.42;;;;;;;24.48;68.17;93765.63;5097462;28;20224;-84
2021/07/27 11:06:00;;;;;;;6.55;3.58;;;;;;;24.96;70.02;93767.34;5097536;28;20198;-84
2021/07/27 11:08:27;;;;;;;7.07;3.67;;;;;;;25.59;69.65;93758.03;5097474;28;20715;-85
2021/07/27 11:11:04;;;;;;;6.38;3.92;;;;;;;26.04;67.20;93754.84;5097474;28;20567;-84
2021/07/27 11:13:32;;;;;;;7.82;4.75;;;;;;;26.14;64.37;93748.50;5097502;28;20198;-85
2021/07/27 11:16:00;;;;;;;7.38;4.35;;;;;;;26.31;65.56;93743.34;5097532;28;20205;-83
2021/07/27 11:18:28;;;;;;;6.25;4.22;;;;;;;25.88;69.87;93745.50;5097755;28;20221;-85
2021/07/27 11:20:55;;;;;;;11.68;4.72;;;;;;;25.71;63.06;93746.09;5097246;28;20281;-85
2021/07/27 11:23:22;;;;;;;7.60;4.70;;;;;;;25.39;67.88;93745.03;5097251;28;20194;-83
2021/07/27 11:25:51;;;;;;;7.18;4.22;;;;;;;25.40;72.25;93742.09;5097249;28;20262;-84
2021/07/27 11:28:18;;;;;;;6.70;3.88;;;;;;;25.14;67.16;93736.34;5097046;28;20221;-84
2021/07/27 11:30:47;;;;;;;5.80;3.92;;;;;;;25.71;68.56;93736.16;5097560;28;20202;-84
2021/07/27 11:33:14;;;;;;;9.80;3.97;;;;;;;26.07;61.81;93737.41;5096547;28;20440;-84
2021/07/27 11:35:45;;;;;;;5.97;4.13;;;;;;;26.39;60.80;93733.78;5097426;28;20232;-85
2021/07/27 11:38:19;;;;;;;6.60;3.72;;;;;;;26.68;60.94;93728.09;5097121;28;20202;-86
2021/07/27 11:40:47;;;;;;;6.47;3.30;;;;;;;26.99;61.30;93723.91;5097443;28;20229;-84
2021/07/27 11:43:17;;;;;;;6.32;3.40;;;;;;;26.46;62.76;93718.09;5097620;28;20198;-85